createdAt,value
2018-11-23T20:59:38.657Z,64.13
2018-11-23T21:02:08.008Z,63.60
2018-11-23T21:11:58.040Z,62.53
2018-11-23T21:14:31.017Z,142.50
2018-11-23T21:17:03.505Z,176.10
2018-11-23T21:19:36.129Z,158.60
2018-11-23T21:22:09.310Z,155.87
2018-11-23T21:24:41.894Z,144.00
2018-11-23T21:27:15.508Z,126.53
2018-11-23T21:29:48.438Z,121.50
2018-11-23T21:32:24.179Z,110.87
2018-11-23T21:34:56.745Z,108.13
2018-11-23T21:37:29.439Z,108.73
2018-11-23T21:40:02.142Z,107.53
2018-11-23T21:42:35.083Z,105.67
2018-11-23T21:45:09.313Z,105.10
2018-11-23T21:47:41.909Z,100.97
2018-11-23T21:50:25.190Z,102.20
2018-11-23T21:52:52.327Z,97.13
2018-11-23T21:55:26.071Z,98.97
2018-11-23T21:57:59.229Z,97.30
2018-11-23T22:00:31.761Z,102.30
2018-11-23T22:03:04.486Z,97.57
2018-11-23T22:05:37.073Z,86.33
2018-11-23T22:08:18.044Z,85.87
2018-11-23T22:10:52.838Z,95.13
2018-11-23T22:13:49.230Z,100.50
2018-11-23T22:16:23.036Z,88.83
2018-11-23T22:18:55.766Z,103.03
2018-11-23T22:21:28.871Z,87.00
2018-11-23T22:24:04.142Z,81.03
2018-11-23T22:26:37.698Z,67.73
2018-11-23T22:32:25.026Z,76.87
2018-11-23T22:35:48.856Z,77.67
2018-11-23T22:46:29.941Z,62.60
2018-11-23T22:49:43.299Z,65.67
2018-11-23T22:52:58.358Z,73.67
2018-11-23T22:55:16.715Z,68.90
2018-11-23T22:58:06.986Z,71.43
2018-11-23T23:01:09.173Z,66.97
2018-11-23T23:06:39.315Z,68.53
2018-11-23T23:09:12.852Z,67.57
2018-11-23T23:11:47.434Z,68.10
2018-11-23T23:14:24.341Z,69.40
2018-11-23T23:16:57.678Z,70.17
2018-11-23T23:19:30.290Z,71.03
2018-11-23T23:22:03.042Z,65.20
2018-11-23T23:24:35.647Z,69.03
2018-11-23T23:27:08.314Z,64.20
2018-11-23T23:29:40.911Z,70.93
2018-11-23T23:32:15.149Z,79.60
2018-11-23T23:34:47.028Z,87.27
2018-11-23T23:37:20.051Z,91.40
2018-11-23T23:39:56.027Z,78.47
2018-11-23T23:42:30.782Z,71.07
2018-11-23T23:45:11.624Z,66.20
2018-11-23T23:47:45.080Z,70.37
2018-11-23T23:50:26.592Z,84.37
2018-11-23T23:52:59.302Z,86.47
2018-11-23T23:55:33.001Z,87.73
2018-11-23T23:58:06.440Z,84.10
